Terminal Aerodrome Forecast
Issued by NWS Charleston, WV

Current Version | Previous Version | Text Only | Print | Product List | Glossary Off
Versions: 1 2 3 4 5 6 7 8 9 10 11 12 13 14 15 16 17 18 19 20 21 22 23 24 25

000
FTUS41 KRLX 240234 AAA
TAFEKN
TAF AMD
KEKN 240234Z 2403/2424 VRB03KT P6SM SKC
     FM240900 00000KT 4SM BR FEW004
     FM241200 00000KT P6SM SKC
     FM241900 VRB04KT P6SM SCT100=

USA.gov is the U.S. government's official web portal to all federal, state and local government web resources and services.